CheckWX is a tool to help pilots better visualize weather data.  It is not intended as a substitute for an official pre-flight weather briefing.

13:14:34 UTC

KMTH METAR
The Florida Keys Marathon International Airport
Marathon, Florida, USA
Current

22 mins ago

KMTH 181253Z AUTO 16006KT 10SM CLR 27/23 A3008 RMK AO2 SLP185 T02670228
Observed
Feb-18 @ 12:53 UTC
Wind
  • 160° at 6 KTS
Visibility
10 SM
Flight Rules
VFR
Cloud Levels
  • Clear skies
Temperature
27°C / 81°F
Dewpoint
23°C / 73°F
Humidity
79%
Altimeter
30.08" Hg
Pressure
1018.5 hPa
Previous

1 hour ago

KMTH 181153Z AUTO 15005KT 9SM FEW024 26/23 A3005 RMK AO2 SLP176 T02610233 10272 20261 53016 $
Observed
Feb-18 @ 11:53 UTC
Wind
  • 150° at 5 KTS
Visibility
9 SM
Flight Rules
VFR
Cloud Levels
  • Few at 2,400' AGL
Temperature
26°C / 79°F
Dewpoint
23°C / 73°F
Humidity
84%
Altimeter
30.05" Hg
Pressure
1017.6 hPa
Previous

2 hours ago

KMTH 181141Z AUTO 15004KT 9SM FEW015 SCT023 BKN034 26/23 A3005 RMK AO2 T02610233 $
Observed
Feb-18 @ 11:41 UTC
Wind
  • 150° at 4 KTS
Visibility
9 SM
Flight Rules
VFR
Cloud Levels
  • Few at 1,500' AGL
  • Scattered at 2,300' AGL
  • Broken at 3,400' AGL
Temperature
26°C / 79°F
Dewpoint
23°C / 73°F
Humidity
84%
Altimeter
30.05" Hg
Pressure
1017.62 hPa